Time;durP1;ratioP1;P1;durP2;ratioP2;P2;SDS_P1;SDS_P2;PMS_P1;PMS_P2;Temp;Humidity;BMP_temperature;BMP_pressure;BME280_temperature;BME280_humidity;BME280_pressure;Samples;Min_cycle;Max_cycle;Signal;HPM_P1;HPM_P2
2022/04/20 00:02:01;;;;;;;11.07;7.00;;;8.60;73.60;;;;;;5124646;28;20473;-80
2022/04/20 00:04:29;;;;;;;13.17;6.53;;;8.60;73.70;;;;;;5126114;28;20450;-80
2022/04/20 00:06:58;;;;;;;10.50;5.67;;;8.60;73.80;;;;;;5103543;28;20477;-81
2022/04/20 00:09:26;;;;;;;10.03;5.40;;;8.50;73.70;;;;;;5120150;28;20519;-80
2022/04/20 00:11:54;;;;;;;11.47;6.37;;;8.50;73.90;;;;;;5116417;28;20459;-80
2022/04/20 00:14:22;;;;;;;9.90;6.43;;;8.40;73.90;;;;;;5124305;28;20444;-81
2022/04/20 00:16:52;;;;;;;10.47;6.37;;;8.40;74.00;;;;;;5123832;28;20937;-80
2022/04/20 00:19:20;;;;;;;11.30;6.10;;;8.30;74.30;;;;;;5124334;28;20522;-80
2022/04/20 00:21:51;;;;;;;9.77;6.03;;;8.30;74.30;;;;;;5124920;28;20443;-81
2022/04/20 00:24:20;;;;;;;10.07;6.27;;;8.30;74.40;;;;;;5124472;28;20450;-80
2022/04/20 00:26:48;;;;;;;10.23;6.70;;;8.20;74.40;;;;;;5123434;28;20882;-81
2022/04/20 00:29:17;;;;;;;10.00;6.30;;;8.20;74.50;;;;;;5124074;28;20510;-80
2022/04/20 00:31:45;;;;;;;13.23;6.33;;;8.10;74.60;;;;;;5123594;28;20455;-81
2022/04/20 00:34:15;;;;;;;8.90;5.77;;;8.10;74.70;;;;;;5121989;28;20476;-83
2022/04/20 00:36:43;;;;;;;9.83;6.13;;;8.10;74.90;;;;;;5121867;28;20450;-80
2022/04/20 00:39:13;;;;;;;10.40;6.40;;;8.00;74.90;;;;;;5138924;28;20447;-80
2022/04/20 00:41:41;;;;;;;9.40;5.80;;;8.00;75.10;;;;;;5124657;28;20458;-80
2022/04/20 00:44:11;;;;;;;9.10;5.60;;;7.90;75.20;;;;;;5125591;28;20500;-80
2022/04/20 00:46:42;;;;;;;8.57;5.90;;;7.80;75.20;;;;;;5125334;28;20508;-81
2022/04/20 00:49:11;;;;;;;8.60;5.80;;;7.80;75.40;;;;;;5125600;28;20460;-80
2022/04/20 00:51:57;;;;;;;10.00;5.63;;;7.80;75.50;;;;;;5125811;28;20567;-80
2022/04/20 00:54:27;;;;;;;10.87;6.63;;;7.70;75.50;;;;;;5125671;28;20454;-80
2022/04/20 00:56:57;;;;;;;8.50;5.47;;;7.70;75.50;;;;;;5125396;28;20467;-81
2022/04/20 00:59:31;;;;;;;10.50;6.53;;;7.60;75.40;;;;;;5125700;28;20932;-81
2022/04/20 01:02:01;;;;;;;10.00;6.00;;;7.60;75.60;;;;;;5124493;28;20451;-80
2022/04/20 01:04:31;;;;;;;9.07;5.80;;;7.60;75.70;;;;;;5125198;28;20447;-80
2022/04/20 01:07:14;;;;;;;10.00;6.13;;;7.60;75.90;;;;;;5124995;28;21058;-81
2022/04/20 01:10:01;;;;;;;8.83;6.40;;;7.50;75.90;;;;;;5126150;28;20452;-80
2022/04/20 01:12:52;;;;;;;10.33;6.03;;;7.50;75.90;;;;;;5125496;28;20447;-80
2022/04/20 01:15:44;;;;;;;8.97;5.60;;;7.40;75.90;;;;;;5123831;28;20522;-80
2022/04/20 01:18:43;;;;;;;13.93;6.60;;;7.40;76.10;;;;;;5124212;28;20562;-80
2022/04/20 01:21:39;;;;;;;11.27;7.43;;;7.30;76.10;;;;;;5123836;28;20479;-80
2022/04/20 01:24:25;;;;;;;9.90;5.93;;;7.30;76.30;;;;;;5124926;28;20427;-80
2022/04/20 01:27:19;;;;;;;11.03;6.67;;;7.20;76.30;;;;;;5088261;28;20488;-81
2022/04/20 01:30:02;;;;;;;9.20;5.57;;;7.20;76.40;;;;;;5120895;28;20432;-80
2022/04/20 01:32:40;;;;;;;9.83;6.10;;;7.20;76.60;;;;;;5103668;28;20440;-80
2022/04/20 01:35:11;;;;;;;10.90;6.00;;;7.10;76.70;;;;;;5108264;28;20447;-80
2022/04/20 01:37:41;;;;;;;10.70;6.03;;;7.10;77.00;;;;;;5112946;28;20493;-81
2022/04/20 01:40:10;;;;;;;8.70;5.80;;;7.10;77.20;;;;;;5110983;28;20474;-81
2022/04/20 01:42:39;;;;;;;9.17;5.20;;;7.00;77.30;;;;;;5106919;28;20481;-80
2022/04/20 01:45:10;;;;;;;8.40;5.60;;;7.00;77.40;;;;;;5103543;28;20543;-80
2022/04/20 01:47:57;;;;;;;9.60;6.10;;;7.00;77.40;;;;;;5104892;28;20465;-80
2022/04/20 01:53:52;;;;;;;10.33;6.17;;;6.90;77.50;;;;;;5103635;28;20444;-80
2022/04/20 01:56:39;;;;;;;12.07;7.23;;;6.90;77.50;;;;;;5119698;28;20527;-80
2022/04/20 01:59:30;;;;;;;8.90;5.77;;;6.90;77.70;;;;;;5115610;28;20447;-79
2022/04/20 02:02:38;;;;;;;9.53;5.87;;;6.80;77.70;;;;;;5120815;28;20455;-80
2022/04/20 02:05:39;;;;;;;11.33;6.57;;;6.80;77.70;;;;;;5111508;28;20439;-79
2022/04/20 02:08:18;;;;;;;11.90;6.50;;;6.70;77.70;;;;;;5122234;28;20991;-80
2022/04/20 02:11:13;;;;;;;11.70;6.50;;;6.70;77.90;;;;;;5140084;27;20484;-80
2022/04/20 02:13:41;;;;;;;9.17;5.30;;;6.70;78.00;;;;;;5127704;28;20503;-81
2022/04/20 02:16:12;;;;;;;11.80;6.90;;;6.60;78.10;;;;;;5127076;28;20528;-80
2022/04/20 02:19:01;;;;;;;10.33;7.20;;;6.60;78.20;;;;;;5092209;28;20443;-80
2022/04/20 02:21:50;;;;;;;9.17;6.87;;;6.60;78.40;;;;;;5121557;28;20473;-80
2022/04/20 02:24:20;;;;;;;10.83;8.20;;;6.60;78.60;;;;;;5122112;28;20802;-80
2022/04/20 02:26:50;;;;;;;9.27;6.90;;;6.50;78.70;;;;;;5120941;28;20489;-80
2022/04/20 02:29:18;;;;;;;9.90;6.40;;;6.50;78.90;;;;;;5121219;28;20455;-80
2022/04/20 02:31:48;;;;;;;10.70;6.40;;;6.50;79.00;;;;;;5122186;28;20455;-80
2022/04/20 02:34:17;;;;;;;9.23;6.40;;;6.50;79.20;;;;;;5119998;28;20446;-80
2022/04/20 02:36:45;;;;;;;11.50;6.70;;;6.50;79.40;;;;;;5119194;28;20459;-80
2022/04/20 02:39:14;;;;;;;12.20;7.10;;;6.50;79.50;;;;;;5137963;27;20485;-80
2022/04/20 02:41:43;;;;;;;9.93;5.80;;;6.50;79.60;;;;;;5119400;28;20488;-80
2022/04/20 02:44:14;;;;;;;9.80;6.20;;;6.40;79.70;;;;;;5119608;28;20473;-80
2022/04/20 02:46:44;;;;;;;9.60;6.20;;;6.40;79.80;;;;;;5119358;28;20435;-80
2022/04/20 02:49:13;;;;;;;10.40;6.27;;;6.40;79.90;;;;;;5136180;27;20486;-79
2022/04/20 02:51:41;;;;;;;10.77;6.63;;;6.40;80.00;;;;;;5136899;27;20462;-80
2022/04/20 02:54:09;;;;;;;9.57;6.63;;;6.40;80.00;;;;;;5136923;27;20461;-80
2022/04/20 02:56:39;;;;;;;10.47;6.57;;;6.40;80.20;;;;;;5119557;27;20450;-80
2022/04/20 02:59:08;;;;;;;10.17;6.40;;;6.40;80.20;;;;;;5119545;28;20805;-80
2022/04/20 03:01:41;;;;;;;13.30;8.20;;;6.30;80.20;;;;;;5118431;28;21005;-79
2022/04/20 03:04:14;;;;;;;10.53;7.07;;;6.30;80.30;;;;;;5119040;28;20993;-79
2022/04/20 03:06:43;;;;;;;9.87;6.90;;;6.30;80.40;;;;;;5136273;27;20474;-80
2022/04/20 03:09:17;;;;;;;10.97;6.93;;;6.30;80.60;;;;;;5118920;28;20818;-80
2022/04/20 03:11:46;;;;;;;11.50;6.87;;;6.20;80.60;;;;;;5118175;28;20498;-80
2022/04/20 03:14:17;;;;;;;13.83;7.53;;;6.20;80.70;;;;;;5109492;28;20462;-80
2022/04/20 03:16:47;;;;;;;12.53;7.63;;;6.20;80.80;;;;;;5118903;28;20443;-80
2022/04/20 03:19:15;;;;;;;10.13;6.80;;;6.20;80.90;;;;;;5119764;28;20504;-80
2022/04/20 03:21:45;;;;;;;9.97;6.60;;;6.20;81.10;;;;;;5136580;27;20475;-81
2022/04/20 03:24:13;;;;;;;10.83;6.80;;;6.10;81.10;;;;;;5118651;28;20549;-79
2022/04/20 03:26:59;;;;;;;11.80;7.67;;;6.10;81.20;;;;;;5118658;28;20475;-80
2022/04/20 03:29:35;;;;;;;10.27;6.50;;;6.10;81.30;;;;;;5136632;27;20788;-80
2022/04/20 03:32:10;;;;;;;10.27;6.93;;;6.10;81.30;;;;;;5121951;28;20442;-79
2022/04/20 03:34:41;;;;;;;9.93;6.87;;;6.00;81.30;;;;;;5121472;28;20445;-80
2022/04/20 03:37:10;;;;;;;10.60;7.13;;;6.00;81.40;;;;;;5120284;28;20483;-80
2022/04/20 03:39:41;;;;;;;11.43;6.87;;;6.00;81.40;;;;;;5120018;28;20461;-79
2022/04/20 03:42:10;;;;;;;9.83;6.50;;;6.00;81.40;;;;;;5120289;28;20500;-80
2022/04/20 03:44:39;;;;;;;9.57;6.47;;;5.90;81.40;;;;;;5119596;28;20442;-80
2022/04/20 03:47:10;;;;;;;9.37;7.40;;;5.90;81.60;;;;;;5121169;28;20459;-80
2022/04/20 03:49:38;;;;;;;12.60;8.80;;;5.90;81.70;;;;;;5121949;28;20426;-80
2022/04/20 03:52:07;;;;;;;11.83;7.63;;;5.90;81.80;;;;;;5127059;28;20429;-79
2022/04/20 03:54:38;;;;;;;12.27;7.93;;;5.90;81.90;;;;;;5139842;28;20462;-79
2022/04/20 03:57:10;;;;;;;13.73;8.50;;;5.90;82.00;;;;;;5136921;28;20846;-79
2022/04/20 03:59:44;;;;;;;12.33;8.17;;;6.10;82.30;;;;;;5135740;28;20449;-80
2022/04/20 04:02:17;;;;;;;12.67;7.60;;;5.80;82.20;;;;;;5131220;28;20448;-79
2022/04/20 04:05:15;;;;;;;11.37;8.00;;;5.80;82.30;;;;;;5131953;28;20473;-79
2022/04/20 04:07:50;;;;;;;12.60;9.03;;;5.80;82.40;;;;;;5132587;28;20478;-81
2022/04/20 04:10:26;;;;;;;11.40;8.10;;;5.80;82.50;;;;;;5133336;28;20456;-79
2022/04/20 04:12:55;;;;;;;11.30;8.10;;;5.70;82.60;;;;;;5150060;27;20459;-79
2022/04/20 04:15:25;;;;;;;12.20;7.87;;;5.80;82.80;;;;;;5136920;28;20457;-79
2022/04/20 04:17:58;;;;;;;15.43;10.97;;;5.70;82.80;;;;;;5137137;28;20464;-80
2022/04/20 04:20:33;;;;;;;11.73;9.30;;;5.70;82.80;;;;;;5143220;28;20530;-83
2022/04/20 04:23:01;;;;;;;12.77;8.63;;;5.70;83.00;;;;;;5142783;28;20481;-82
2022/04/20 04:25:45;;;;;;;15.00;8.33;;;5.70;83.10;;;;;;5159455;27;20426;-82
2022/04/20 04:28:33;;;;;;;14.00;9.17;;;5.70;83.10;;;;;;5160395;27;20483;-83
2022/04/20 04:31:02;;;;;;;11.87;8.70;;;5.70;83.10;;;;;;5142820;28;20435;-80
2022/04/20 04:33:35;;;;;;;11.43;8.23;;;5.60;83.10;;;;;;5140946;28;20422;-78
2022/04/20 04:36:05;;;;;;;12.53;8.87;;;5.60;83.20;;;;;;5158236;27;20436;-80
2022/04/20 04:38:40;;;;;;;17.33;9.47;;;5.60;83.30;;;;;;5139814;28;20487;-79
2022/04/20 04:41:12;;;;;;;11.67;8.93;;;5.60;83.30;;;;;;5138637;28;20462;-79
2022/04/20 04:43:40;;;;;;;13.53;9.00;;;5.60;83.40;;;;;;5138894;28;20423;-79
2022/04/20 04:49:13;;;;;;;10.67;8.60;;;5.60;83.70;;;;;;5138977;28;20468;-79
2022/04/20 04:51:42;;;;;;;11.93;9.50;;;5.60;83.80;;;;;;5141316;28;20429;-79
2022/04/20 04:54:14;;;;;;;12.47;9.10;;;5.50;83.80;;;;;;5153539;27;20440;-79
2022/04/20 04:56:43;;;;;;;13.40;9.27;;;5.50;83.90;;;;;;5153027;27;20454;-79
2022/04/20 04:59:12;;;;;;;14.30;10.10;;;5.50;84.00;;;;;;5135561;28;20473;-79
2022/04/20 05:01:42;;;;;;;11.40;9.17;;;5.50;84.10;;;;;;5135775;28;20464;-79
2022/04/20 05:04:17;;;;;;;12.47;8.87;;;5.50;84.20;;;;;;5135617;28;20472;-79
2022/04/20 05:06:47;;;;;;;13.70;10.40;;;5.50;84.30;;;;;;5135293;27;20526;-80
2022/04/20 05:09:24;;;;;;;13.90;10.33;;;5.60;84.60;;;;;;5132539;28;20509;-79
2022/04/20 05:11:52;;;;;;;13.03;9.10;;;5.60;84.70;;;;;;5125509;28;20447;-79
2022/04/20 05:14:21;;;;;;;14.03;9.43;;;5.50;84.80;;;;;;5136786;28;20519;-80
2022/04/20 05:16:55;;;;;;;13.77;10.20;;;5.60;84.90;;;;;;5153143;27;20436;-80
2022/04/20 05:19:29;;;;;;;13.13;10.03;;;5.60;85.00;;;;;;5127587;28;20838;-79
2022/04/20 05:22:02;;;;;;;15.23;10.53;;;5.60;85.20;;;;;;5139747;27;20871;-79
2022/04/20 05:24:37;;;;;;;14.67;9.90;;;5.60;85.30;;;;;;5127124;28;20454;-80
2022/04/20 05:27:10;;;;;;;16.87;10.83;;;5.60;85.50;;;;;;5133013;28;20494;-79
2022/04/20 05:29:50;;;;;;;14.20;10.37;;;5.60;85.60;;;;;;5133938;28;20458;-81
2022/04/20 05:32:19;;;;;;;14.10;9.93;;;5.70;85.80;;;;;;5134597;28;20443;-80
2022/04/20 05:34:49;;;;;;;15.23;12.20;;;5.60;85.80;;;;;;5133506;28;20478;-80
2022/04/20 05:42:56;;;;;;;16.10;10.70;;;5.80;86.20;;;;;;5133732;28;20459;-79
2022/04/20 05:45:24;;;;;;;18.33;11.80;;;5.90;86.40;;;;;;5150555;27;20442;-79
2022/04/20 05:48:10;;;;;;;13.87;9.73;;;5.90;86.50;;;;;;5134550;28;20888;-79
2022/04/20 05:50:41;;;;;;;14.67;11.23;;;5.90;86.50;;;;;;5134757;28;20870;-79
2022/04/20 05:53:11;;;;;;;13.50;10.50;;;5.90;86.80;;;;;;5134992;28;20427;-80
2022/04/20 05:55:40;;;;;;;13.43;10.43;;;6.00;86.90;;;;;;5151732;27;20494;-79
2022/04/20 05:58:08;;;;;;;15.50;10.90;;;6.10;87.10;;;;;;5134611;28;20484;-80
2022/04/20 06:00:38;;;;;;;14.70;10.87;;;6.10;87.30;;;;;;5134448;28;20439;-79
2022/04/20 06:03:24;;;;;;;13.97;10.40;;;6.20;87.50;;;;;;5134764;28;20459;-80
2022/04/20 06:06:06;;;;;;;13.47;11.17;;;6.40;87.70;;;;;;5120121;27;20475;-80
2022/04/20 06:08:48;;;;;;;15.43;11.37;;;6.70;88.00;;;;;;5123619;28;20473;-80
2022/04/20 06:11:31;;;;;;;15.93;11.07;;;6.90;88.30;;;;;;5132623;28;20443;-80
2022/04/20 06:14:00;;;;;;;17.43;11.30;;;7.20;88.70;;;;;;5150813;27;20450;-80
2022/04/20 06:16:38;;;;;;;17.47;11.40;;;7.50;89.10;;;;;;5135146;28;20509;-82
2022/04/20 06:19:11;;;;;;;15.10;11.00;;;7.80;89.20;;;;;;5152150;27;20446;-81
2022/04/20 06:21:48;;;;;;;14.83;11.30;;;8.10;89.40;;;;;;5134853;28;20476;-80
2022/04/20 06:24:22;;;;;;;14.43;10.80;;;8.30;89.40;;;;;;5134759;28;20467;-79
2022/04/20 06:27:17;;;;;;;13.53;10.40;;;8.60;89.50;;;;;;5133972;28;20459;-80
2022/04/20 06:30:05;;;;;;;14.87;10.33;;;8.90;89.30;;;;;;5136250;28;20955;-80
2022/04/20 06:32:41;;;;;;;18.10;10.43;;;9.20;89.10;;;;;;5134954;28;20454;-79
2022/04/20 06:35:38;;;;;;;11.87;9.40;;;9.50;88.60;;;;;;5097922;28;20433;-80
2022/04/20 06:38:24;;;;;;;14.10;9.37;;;9.70;88.20;;;;;;5150744;27;20482;-80
2022/04/20 06:41:19;;;;;;;13.80;10.03;;;9.90;88.10;;;;;;5126248;28;20455;-80
2022/04/20 06:44:06;;;;;;;13.40;9.00;;;10.20;87.10;;;;;;5135603;28;20462;-80
2022/04/20 06:46:38;;;;;;;13.70;9.30;;;10.50;86.80;;;;;;5135600;28;20415;-81
2022/04/20 06:49:33;;;;;;;12.23;8.70;;;10.70;86.50;;;;;;5131221;28;20444;-80
2022/04/20 07:00:33;;;;;;;10.67;6.97;;;11.00;84.10;;;;;;5132511;28;20499;-80
2022/04/20 07:03:30;;;;;;;11.20;7.50;;;11.10;83.50;;;;;;5130198;28;20891;-80
2022/04/20 07:06:17;;;;;;;12.03;7.63;;;11.30;83.10;;;;;;5132325;28;20501;-80
2022/04/20 07:09:04;;;;;;;10.47;6.87;;;11.40;82.70;;;;;;5131839;28;20422;-80
2022/04/20 07:11:41;;;;;;;13.13;7.30;;;11.50;82.50;;;;;;5130546;28;20488;-80
2022/04/20 07:14:10;;;;;;;10.17;7.30;;;11.70;82.10;;;;;;5146476;27;20435;-80
2022/04/20 07:16:39;;;;;;;12.73;7.93;;;11.90;82.00;;;;;;5129192;28;20501;-82
2022/04/20 07:19:14;;;;;;;12.47;7.27;;;12.00;81.40;;;;;;5129522;28;20453;-80
2022/04/20 07:22:03;;;;;;;12.17;7.37;;;12.20;80.90;;;;;;5131560;28;20450;-80
2022/04/20 07:24:42;;;;;;;11.90;7.63;;;12.30;80.40;;;;;;5125461;28;20999;-80
2022/04/20 07:27:50;;;;;;;11.20;7.13;;;12.40;80.10;;;;;;5122423;28;20474;-80
2022/04/20 07:30:51;;;;;;;10.77;7.13;;;12.50;79.60;;;;;;5107150;28;20451;-80
2022/04/20 07:33:49;;;;;;;10.30;6.33;;;12.60;79.40;;;;;;5125492;28;20780;-80
2022/04/20 07:36:34;;;;;;;11.40;6.70;;;12.80;79.50;;;;;;5128882;28;20459;-80
2022/04/20 07:39:14;;;;;;;11.17;6.23;;;13.00;79.30;;;;;;5147874;27;20443;-80
2022/04/20 07:42:22;;;;;;;10.60;6.53;;;13.20;79.00;;;;;;5131439;28;20467;-80
2022/04/20 07:45:14;;;;;;;9.97;6.87;;;13.30;78.60;;;;;;5112431;28;20448;-80
2022/04/20 07:47:58;;;;;;;9.77;6.03;;;13.40;78.30;;;;;;5129822;28;20498;-81
2022/04/20 07:50:39;;;;;;;10.20;6.57;;;13.50;78.20;;;;;;5128925;28;20447;-80
2022/04/20 07:53:13;;;;;;;10.90;7.23;;;13.60;77.60;;;;;;5127617;28;20525;-80
2022/04/20 07:56:05;;;;;;;10.20;6.30;;;13.70;77.30;;;;;;5125030;28;20443;-80
2022/04/20 07:58:39;;;;;;;10.07;6.40;;;13.80;77.10;;;;;;5131297;28;20467;-80
2022/04/20 08:01:28;;;;;;;10.90;6.10;;;13.80;76.40;;;;;;5132574;28;20439;-80
2022/04/20 08:03:57;;;;;;;12.00;6.63;;;13.80;76.10;;;;;;5132610;28;20528;-80
2022/04/20 08:06:43;;;;;;;9.97;6.57;;;13.90;75.80;;;;;;5131643;28;20449;-81
2022/04/20 08:09:11;;;;;;;12.70;6.90;;;13.90;75.40;;;;;;5132928;28;20422;-80
2022/04/20 08:11:39;;;;;;;10.53;6.97;;;13.90;75.20;;;;;;5132039;28;20443;-80
2022/04/20 08:14:13;;;;;;;11.57;6.13;;;13.90;74.90;;;;;;5131810;28;20492;-80
2022/04/20 08:16:48;;;;;;;9.47;6.60;;;13.90;74.90;;;;;;5131245;28;20440;-81
2022/04/20 08:19:29;;;;;;;9.00;6.20;;;13.90;74.60;;;;;;5133159;28;20502;-81
2022/04/20 08:22:08;;;;;;;11.50;7.70;;;14.00;74.70;;;;;;5131825;28;20458;-80
2022/04/20 08:24:36;;;;;;;11.60;7.67;;;14.10;74.80;;;;;;5131629;28;20463;-80
2022/04/20 08:27:05;;;;;;;10.23;6.80;;;14.30;74.90;;;;;;5131568;28;20528;-80
2022/04/20 08:29:33;;;;;;;11.03;6.77;;;14.40;74.70;;;;;;5131047;28;20830;-81
2022/04/20 08:32:06;;;;;;;8.03;5.83;;;14.60;74.90;;;;;;5131777;28;20436;-80
2022/04/20 08:34:35;;;;;;;8.50;5.57;;;14.70;74.90;;;;;;5132639;28;20416;-80
2022/04/20 08:37:23;;;;;;;10.17;6.43;;;14.90;74.40;;;;;;5131126;28;20439;-81
2022/04/20 08:39:51;;;;;;;7.93;5.33;;;15.00;74.00;;;;;;5130208;28;20459;-80
2022/04/20 08:42:22;;;;;;;9.37;5.73;;;15.10;74.00;;;;;;5130569;28;20452;-81
2022/04/20 08:44:52;;;;;;;10.00;6.03;;;15.20;74.30;;;;;;5130643;28;20934;-81
2022/04/20 08:47:23;;;;;;;9.20;6.17;;;15.30;73.60;;;;;;5130856;28;20438;-81
2022/04/20 08:49:53;;;;;;;9.73;6.40;;;15.30;72.70;;;;;;5131506;28;20443;-80
2022/04/20 08:52:41;;;;;;;9.63;5.80;;;15.30;72.30;;;;;;5131356;28;20807;-80
2022/04/20 08:55:12;;;;;;;9.03;6.53;;;15.30;72.70;;;;;;5131202;28;20466;-81
2022/04/20 08:57:42;;;;;;;10.43;5.17;;;15.40;72.70;;;;;;5130504;28;20438;-81
2022/04/20 09:00:12;;;;;;;8.17;5.20;;;15.40;72.70;;;;;;5132359;28;20477;-81
2022/04/20 09:02:41;;;;;;;12.70;6.57;;;15.50;72.70;;;;;;5134135;27;20439;-82
2022/04/20 09:05:11;;;;;;;11.90;5.73;;;15.60;72.70;;;;;;5135401;27;20466;-81
2022/04/20 09:07:45;;;;;;;8.40;6.03;;;15.70;72.80;;;;;;5134015;28;20462;-81
2022/04/20 09:10:13;;;;;;;10.30;6.00;;;15.80;73.00;;;;;;5131699;28;20550;-81
2022/04/20 09:12:43;;;;;;;8.63;5.47;;;15.90;72.90;;;;;;5131037;28;20469;-81
2022/04/20 09:15:14;;;;;;;9.67;6.03;;;16.00;72.60;;;;;;5129335;28;20447;-81
2022/04/20 09:17:47;;;;;;;9.07;6.03;;;16.10;72.50;;;;;;5134161;28;20477;-81
2022/04/20 09:20:18;;;;;;;9.47;6.40;;;16.20;72.80;;;;;;5135625;28;20391;-81
2022/04/20 09:23:00;;;;;;;9.47;6.20;;;16.20;72.30;;;;;;5133466;28;20496;-81
2022/04/20 09:25:34;;;;;;;10.30;5.80;;;16.30;72.50;;;;;;5132703;28;20465;-81
2022/04/20 09:28:03;;;;;;;9.43;6.70;;;16.40;72.40;;;;;;5132970;28;20474;-82
2022/04/20 09:30:36;;;;;;;13.13;7.47;;;16.30;71.90;;;;;;5133615;28;20479;-81
2022/04/20 09:33:08;;;;;;;9.53;7.00;;;16.30;71.70;;;;;;5135171;28;20442;-81
2022/04/20 09:35:43;;;;;;;10.03;6.33;;;16.20;71.70;;;;;;5134038;28;20462;-82
2022/04/20 09:38:13;;;;;;;11.10;7.63;;;16.20;71.90;;;;;;5150911;27;20463;-83
2022/04/20 09:41:08;;;;;;;10.60;7.00;;;16.30;72.10;;;;;;5131975;28;20451;-81
2022/04/20 09:43:37;;;;;;;9.87;7.67;;;16.30;71.80;;;;;;5125444;28;20451;-81
2022/04/20 09:48:50;;;;;;;9.53;6.73;;;16.30;71.90;;;;;;5126463;28;20504;-81
2022/04/20 09:49:05;;;;;;;12.03;7.50;;;16.30;71.90;;;;;;5124252;28;20434;-81
2022/04/20 09:51:38;;;;;;;10.80;7.10;;;16.30;72.00;;;;;;5124904;27;20425;-81
2022/04/20 09:54:26;;;;;;;9.50;7.00;;;16.30;71.60;;;;;;5132118;28;20424;-81
2022/04/20 09:57:09;;;;;;;10.27;6.60;;;16.40;71.40;;;;;;5133539;28;20420;-83
2022/04/20 09:59:39;;;;;;;10.20;6.20;;;16.40;71.40;;;;;;5131997;28;20443;-81
2022/04/20 10:02:16;;;;;;;9.20;6.10;;;16.40;71.10;;;;;;5131838;27;20535;-81
2022/04/20 10:04:48;;;;;;;11.60;6.00;;;16.40;70.90;;;;;;5130912;28;20463;-82
2022/04/20 10:07:16;;;;;;;8.37;5.17;;;16.40;70.50;;;;;;5130158;28;20499;-81
2022/04/20 10:09:45;;;;;;;7.70;4.37;;;16.50;70.20;;;;;;5129580;28;20494;-81
2022/04/20 10:12:15;;;;;;;7.70;4.13;;;16.60;69.80;;;;;;5127865;28;20461;-81
2022/04/20 10:17:43;;;;;;;9.17;4.80;;;16.70;68.50;;;;;;5128682;28;20531;-82
2022/04/20 10:20:14;;;;;;;8.07;4.33;;;16.80;68.20;;;;;;5127435;28;20504;-82
2022/04/20 10:22:44;;;;;;;7.70;4.20;;;16.80;68.00;;;;;;5147640;27;20406;-81
2022/04/20 10:25:13;;;;;;;6.77;4.13;;;16.90;67.70;;;;;;5133134;28;20499;-81
2022/04/20 10:28:07;;;;;;;8.00;4.50;;;16.90;67.30;;;;;;5130968;28;20448;-81
2022/04/20 10:30:59;;;;;;;8.87;4.10;;;17.00;66.80;;;;;;5124172;28;20422;-81
2022/04/20 10:33:31;;;;;;;6.80;4.10;;;17.00;66.40;;;;;;5119737;28;20451;-81
2022/04/20 10:36:16;;;;;;;7.27;4.20;;;17.00;65.80;;;;;;5124634;28;20505;-82
2022/04/20 10:39:18;;;;;;;8.27;5.10;;;16.90;65.20;;;;;;5123677;28;20528;-82
2022/04/20 10:42:18;;;;;;;7.03;4.23;;;16.90;64.50;;;;;;5129813;28;20490;-81
2022/04/20 10:45:00;;;;;;;8.20;4.80;;;16.80;64.30;;;;;;5133668;28;20525;-82
2022/04/20 10:47:30;;;;;;;7.40;4.40;;;16.70;65.10;;;;;;5130207;28;20466;-81
2022/04/20 10:50:13;;;;;;;8.00;4.53;;;16.70;64.30;;;;;;5129125;28;20486;-81
2022/04/20 10:52:52;;;;;;;8.50;4.40;;;16.70;64.20;;;;;;5132496;28;20472;-82
2022/04/20 10:55:45;;;;;;;9.17;4.90;;;16.70;64.30;;;;;;5132856;28;20455;-82
2022/04/20 10:58:22;;;;;;;9.77;4.60;;;16.70;64.50;;;;;;5132056;28;20426;-82
2022/04/20 11:01:09;;;;;;;8.70;4.70;;;16.70;64.40;;;;;;5132524;28;20435;-82
2022/04/20 11:04:06;;;;;;;8.63;4.50;;;16.70;64.10;;;;;;5149788;27;20455;-82
2022/04/20 11:07:15;;;;;;;7.60;4.67;;;16.80;64.10;;;;;;5132143;28;20487;-82
2022/04/20 11:09:57;;;;;;;7.87;4.70;;;16.80;64.30;;;;;;5132815;28;20449;-82
2022/04/20 11:19:06;;;;;;;7.90;4.40;;;17.00;63.70;;;;;;5114864;28;20530;-82
2022/04/20 11:21:55;;;;;;;8.67;4.33;;;16.90;63.70;;;;;;5131241;28;20452;-82
2022/04/20 11:24:28;;;;;;;7.70;4.47;;;16.90;63.70;;;;;;5147976;27;20460;-82
2022/04/20 11:26:58;;;;;;;7.20;4.20;;;16.90;63.70;;;;;;5132718;28;20939;-82
2022/04/20 11:29:28;;;;;;;7.30;4.80;;;17.00;63.50;;;;;;5132848;27;20968;-81
2022/04/20 11:31:59;;;;;;;7.10;3.80;;;16.90;63.10;;;;;;5131767;28;20451;-82
2022/04/20 11:34:35;;;;;;;7.47;3.97;;;16.90;62.90;;;;;;5131001;28;20465;-82
2022/04/20 11:37:06;;;;;;;7.23;3.60;;;16.90;62.90;;;;;;5110224;22;20485;-80
2022/04/20 11:39:35;;;;;;;6.13;3.20;;;16.90;62.60;;;;;;5088835;28;20433;-82
2022/04/20 11:42:05;;;;;;;10.40;4.17;;;16.90;62.30;;;;;;5088718;28;20412;-82
2022/04/20 11:44:39;;;;;;;10.40;3.90;;;16.90;62.10;;;;;;5071550;28;20441;-82
2022/04/20 11:47:17;;;;;;;8.10;4.97;;;16.90;62.30;;;;;;5087247;28;20461;-82
2022/04/20 11:49:48;;;;;;;6.37;3.77;;;17.00;62.10;;;;;;5088862;28;21067;-82
2022/04/20 11:52:37;;;;;;;7.67;3.83;;;16.90;61.70;;;;;;5068422;28;20442;-82
2022/04/20 11:55:46;;;;;;;7.63;3.97;;;17.00;62.00;;;;;;5070361;28;20453;-82
2022/04/20 11:58:14;;;;;;;8.10;3.63;;;17.00;62.00;;;;;;5087557;28;20442;-82
2022/04/20 12:00:44;;;;;;;7.97;4.00;;;17.00;61.60;;;;;;5087771;28;20483;-82
2022/04/20 12:03:14;;;;;;;6.77;4.73;;;17.00;61.10;;;;;;5087940;28;20437;-82
2022/04/20 12:05:42;;;;;;;6.03;3.30;;;17.10;61.10;;;;;;5087469;28;20440;-82
2022/04/20 12:08:12;;;;;;;6.27;3.03;;;17.10;61.30;;;;;;5087676;28;20461;-81
2022/04/20 12:10:41;;;;;;;6.30;3.20;;;17.10;61.30;;;;;;5083576;28;20461;-83
2022/04/20 12:13:10;;;;;;;9.70;3.37;;;17.20;61.30;;;;;;5083530;28;20452;-83
2022/04/20 12:15:39;;;;;;;6.30;3.37;;;17.20;61.00;;;;;;5084022;28;20455;-83
2022/04/20 12:18:12;;;;;;;5.97;2.90;;;17.30;60.70;;;;;;5083724;28;20510;-83
2022/04/20 12:20:47;;;;;;;6.73;3.20;;;17.30;60.30;;;;;;5076941;28;20496;-84
2022/04/20 12:23:17;;;;;;;6.43;3.23;;;17.20;59.80;;;;;;5076262;28;20486;-83
2022/04/20 12:25:52;;;;;;;5.97;3.37;;;17.20;59.80;;;;;;5078610;28;20972;-83
2022/04/20 12:31:07;;;;;;;6.30;3.10;;;17.20;59.50;;;;;;5077684;28;20445;-83
2022/04/20 12:33:38;;;;;;;6.30;2.60;;;17.30;59.40;;;;;;5080077;28;20464;-83
2022/04/20 12:36:17;;;;;;;6.90;3.73;;;17.30;59.40;;;;;;5080167;28;20473;-82
2022/04/20 12:38:51;;;;;;;6.57;3.23;;;17.40;59.30;;;;;;5081482;28;20465;-83
2022/04/20 12:41:45;;;;;;;8.20;3.30;;;17.40;59.30;;;;;;5082489;28;20415;-83
2022/04/20 12:44:51;;;;;;;6.10;3.27;;;17.40;59.10;;;;;;5082518;28;20448;-83
2022/04/20 12:47:39;;;;;;;6.10;3.30;;;17.40;58.70;;;;;;5084982;28;21062;-83
2022/04/20 12:50:19;;;;;;;9.00;3.47;;;17.40;58.40;;;;;;5082449;28;20427;-82
2022/04/20 12:53:02;;;;;;;7.23;3.57;;;17.30;58.70;;;;;;5083323;28;20793;-83
2022/04/20 13:04:25;;;;;;;7.13;4.17;;;17.30;59.10;;;;;;5064416;28;20433;-83
2022/04/20 13:06:53;;;;;;;7.07;4.10;;;17.40;59.10;;;;;;5061323;28;20508;-82
2022/04/20 13:09:24;;;;;;;7.53;4.33;;;17.40;58.40;;;;;;5061571;28;20446;-82
2022/04/20 13:11:53;;;;;;;6.70;4.10;;;17.40;58.10;;;;;;5061175;28;20819;-82
2022/04/20 13:14:21;;;;;;;8.90;4.20;;;17.40;58.70;;;;;;5068328;28;20450;-83
2022/04/20 13:16:50;;;;;;;7.57;3.70;;;17.30;58.30;;;;;;5081750;28;20427;-82
2022/04/20 13:19:18;;;;;;;7.63;3.70;;;17.40;58.20;;;;;;5083581;28;20449;-82
2022/04/20 13:21:46;;;;;;;6.53;3.57;;;17.30;58.10;;;;;;5084453;28;20475;-82
2022/04/20 13:27:53;;;;;;;7.10;4.40;;;17.30;57.90;;;;;;5082245;28;20473;-83
2022/04/20 13:29:50;;;;;;;7.40;4.43;;;17.40;57.80;;;;;;5084584;28;20436;-83
2022/04/20 13:32:18;;;;;;;9.23;4.63;;;17.40;57.70;;;;;;5084131;28;20453;-82
2022/04/20 13:34:47;;;;;;;11.70;4.17;;;17.40;57.70;;;;;;5086003;28;20433;-82
2022/04/20 13:37:15;;;;;;;7.23;5.20;;;17.40;57.80;;;;;;5085517;28;20572;-82
2022/04/20 13:39:46;;;;;;;6.97;5.00;;;17.50;58.20;;;;;;5083054;28;20480;-82
2022/04/20 13:42:15;;;;;;;6.27;3.63;;;17.50;57.60;;;;;;5083473;28;20528;-82
2022/04/20 13:44:44;;;;;;;6.80;3.50;;;17.50;57.40;;;;;;5083965;28;20454;-82
2022/04/20 13:47:12;;;;;;;7.23;4.27;;;17.50;57.50;;;;;;5082932;28;21016;-83
2022/04/20 13:49:41;;;;;;;7.67;4.10;;;17.50;57.60;;;;;;5077804;28;20509;-83
2022/04/20 13:52:09;;;;;;;7.87;4.73;;;17.60;57.70;;;;;;5079083;28;20476;-82
2022/04/20 13:54:37;;;;;;;7.27;4.50;;;17.60;57.60;;;;;;5079470;28;20461;-82
2022/04/20 13:57:05;;;;;;;8.33;3.90;;;17.70;57.10;;;;;;5078101;28;20464;-82
2022/04/20 13:59:35;;;;;;;6.33;3.83;;;17.70;56.90;;;;;;5078846;28;20449;-82
2022/04/20 14:02:03;;;;;;;8.07;4.20;;;17.60;56.90;;;;;;5077531;28;20928;-82
2022/04/20 14:04:32;;;;;;;12.10;3.90;;;17.60;57.20;;;;;;5081174;28;20446;-82
2022/04/20 14:07:03;;;;;;;7.67;3.47;;;17.70;57.30;;;;;;5082832;28;20567;-82
2022/04/20 14:09:31;;;;;;;7.27;3.43;;;17.70;57.20;;;;;;5083837;28;20449;-82
2022/04/20 14:11:59;;;;;;;6.93;4.13;;;17.80;57.10;;;;;;5081947;28;20460;-81
2022/04/20 14:14:27;;;;;;;8.07;4.00;;;17.80;56.70;;;;;;5083131;28;20449;-82